createdAt,value
2023-02-16T00:02:13.534Z,1.77
2023-02-16T00:05:00.701Z,2.40
2023-02-16T00:07:47.766Z,1.70
2023-02-16T00:10:37.972Z,1.80
2023-02-16T00:13:47.610Z,2.00
2023-02-16T00:16:34.342Z,1.93
2023-02-16T00:19:23.762Z,1.80
2023-02-16T00:22:12.457Z,1.80
2023-02-16T00:24:59.331Z,1.73
2023-02-16T00:27:47.590Z,1.77
2023-02-16T00:30:34.875Z,1.57
2023-02-16T00:33:23.105Z,1.47
2023-02-16T00:36:10.972Z,1.70
2023-02-16T00:38:58.074Z,1.80
2023-02-16T00:41:54.023Z,1.40
2023-02-16T00:44:44.877Z,1.20
2023-02-16T00:47:35.439Z,1.90
2023-02-16T00:50:25.458Z,1.83
2023-02-16T00:53:12.843Z,2.27
2023-02-16T00:56:00.044Z,1.50
2023-02-16T00:58:47.453Z,1.77
2023-02-16T01:01:36.985Z,1.27
2023-02-16T01:04:25.007Z,1.53
2023-02-16T01:07:30.789Z,1.60
2023-02-16T01:10:36.484Z,1.97
2023-02-16T01:13:24.378Z,1.93
2023-02-16T01:16:17.032Z,1.80
2023-02-16T01:19:06.721Z,1.57
2023-02-16T01:21:53.730Z,1.63
2023-02-16T01:24:40.681Z,1.53
2023-02-16T01:27:27.517Z,1.60
2023-02-16T01:30:17.970Z,1.50
2023-02-16T01:33:05.038Z,1.53
2023-02-16T01:35:56.258Z,1.57
2023-02-16T01:38:43.267Z,1.63
2023-02-16T01:41:45.442Z,1.07
2023-02-16T01:44:37.480Z,1.40
2023-02-16T01:47:35.647Z,1.37
2023-02-16T01:50:24.263Z,1.60
2023-02-16T01:53:20.046Z,1.20
2023-02-16T01:56:15.696Z,1.53
2023-02-16T01:59:09.936Z,1.60
2023-02-16T02:01:59.425Z,1.90
2023-02-16T02:05:06.293Z,2.13
2023-02-16T02:07:59.346Z,2.17
2023-02-16T02:10:58.492Z,1.60
2023-02-16T02:13:51.672Z,1.63
2023-02-16T02:16:38.763Z,1.27
2023-02-16T02:19:25.805Z,1.23
2023-02-16T02:23:12.057Z,1.87
2023-02-16T02:26:44.106Z,1.20
2023-02-16T02:30:03.590Z,1.60
2023-02-16T02:33:03.588Z,1.30
2023-02-16T02:35:57.296Z,1.40
2023-02-16T02:38:58.807Z,1.20
2023-02-16T02:42:05.796Z,1.40
2023-02-16T02:44:58.653Z,1.10
2023-02-16T02:47:49.314Z,1.87
2023-02-16T02:50:41.775Z,1.33
2023-02-16T02:53:28.838Z,1.40
2023-02-16T02:56:35.508Z,1.40
2023-02-16T02:59:40.009Z,1.77
2023-02-16T03:02:29.762Z,1.30
2023-02-16T03:05:19.188Z,1.70
2023-02-16T03:08:15.302Z,1.27
2023-02-16T03:11:24.172Z,2.00
2023-02-16T03:14:16.508Z,1.90
2023-02-16T03:17:26.406Z,1.23
2023-02-16T03:20:35.058Z,1.57
2023-02-16T03:23:39.138Z,1.80
2023-02-16T03:26:44.449Z,2.23
2023-02-16T03:29:31.663Z,1.60
2023-02-16T03:32:18.872Z,1.93
2023-02-16T03:35:06.518Z,1.90
2023-02-16T03:37:55.008Z,2.33
2023-02-16T03:40:44.123Z,1.93
2023-02-16T03:43:30.982Z,2.20
2023-02-16T03:46:18.300Z,1.77
2023-02-16T03:49:05.542Z,2.30
2023-02-16T03:51:52.318Z,2.30
2023-02-16T03:54:40.879Z,2.07
2023-02-16T03:57:27.883Z,2.27
2023-02-16T04:00:15.441Z,1.97
2023-02-16T04:03:02.833Z,2.20
2023-02-16T04:05:49.813Z,2.03
2023-02-16T04:08:36.876Z,1.90
2023-02-16T04:11:42.504Z,1.97
2023-02-16T04:14:29.462Z,2.10
2023-02-16T04:17:16.442Z,3.37
2023-02-16T04:20:07.732Z,2.23
2023-02-16T04:22:55.122Z,1.67
2023-02-16T04:25:42.101Z,2.20
2023-02-16T04:28:30.767Z,1.97
2023-02-16T04:31:17.940Z,2.33
2023-02-16T04:34:05.124Z,1.80
2023-02-16T04:36:52.400Z,2.00
2023-02-16T04:39:39.456Z,1.93
2023-02-16T04:42:26.418Z,1.77
2023-02-16T04:45:14.655Z,2.00
2023-02-16T04:48:01.751Z,1.80
2023-02-16T04:50:48.808Z,2.50
2023-02-16T04:53:36.042Z,1.93
2023-02-16T04:56:23.159Z,2.40
2023-02-16T04:59:09.989Z,2.53
2023-02-16T05:01:58.729Z,2.47
2023-02-16T05:04:46.008Z,2.20
2023-02-16T05:07:32.946Z,2.40
2023-02-16T05:10:20.175Z,2.93
2023-02-16T05:13:24.324Z,1.73
2023-02-16T05:16:11.524Z,2.63
2023-02-16T05:18:59.847Z,2.43
2023-02-16T05:21:46.887Z,2.20
2023-02-16T05:24:34.753Z,2.53
2023-02-16T05:27:23.691Z,2.97
2023-02-16T05:30:12.302Z,2.50
2023-02-16T05:32:59.094Z,2.27
2023-02-16T05:35:55.677Z,2.87
2023-02-16T05:38:44.506Z,1.83
2023-02-16T05:41:35.193Z,2.40
2023-02-16T05:44:22.277Z,1.70
2023-02-16T05:47:09.394Z,2.33
2023-02-16T05:49:56.177Z,1.80
2023-02-16T05:52:44.470Z,1.93
2023-02-16T05:55:31.489Z,1.97
2023-02-16T05:58:18.378Z,2.23
2023-02-16T06:01:06.063Z,2.23
2023-02-16T06:03:53.445Z,2.47
2023-02-16T06:06:41.214Z,1.87
2023-02-16T06:09:31.341Z,2.10
2023-02-16T06:12:18.166Z,2.33
2023-02-16T06:15:05.255Z,2.50
2023-02-16T06:17:51.983Z,2.07
2023-02-16T06:20:38.865Z,2.97
2023-02-16T06:23:25.530Z,2.53
2023-02-16T06:26:13.515Z,2.13
2023-02-16T06:29:00.838Z,2.83
2023-02-16T06:31:47.956Z,2.60
2023-02-16T06:34:35.035Z,2.10
2023-02-16T06:37:22.320Z,2.80
2023-02-16T06:40:10.479Z,2.17
2023-02-16T06:42:58.794Z,2.37
2023-02-16T06:45:45.886Z,2.60
2023-02-16T06:48:33.428Z,2.37
2023-02-16T06:51:21.012Z,2.17
2023-02-16T06:54:08.480Z,2.90
2023-02-16T06:56:55.563Z,2.70
2023-02-16T06:59:43.895Z,2.40
2023-02-16T07:02:31.135Z,2.90
2023-02-16T07:05:18.736Z,3.20
2023-02-16T07:08:09.030Z,3.53
2023-02-16T07:10:56.132Z,2.67
2023-02-16T07:13:43.367Z,2.37
2023-02-16T07:16:32.320Z,2.60
2023-02-16T07:19:19.305Z,3.33
2023-02-16T07:22:06.316Z,2.67
2023-02-16T07:24:53.117Z,2.47
2023-02-16T07:27:40.302Z,2.57
2023-02-16T07:30:27.516Z,3.00
2023-02-16T07:33:16.757Z,2.60
2023-02-16T07:36:03.952Z,2.57
2023-02-16T07:38:51.797Z,3.40
2023-02-16T07:41:38.843Z,3.13
2023-02-16T07:44:25.836Z,2.60
2023-02-16T07:47:13.725Z,2.60
2023-02-16T07:50:02.333Z,3.13
2023-02-16T07:52:49.482Z,3.07
2023-02-16T07:55:40.641Z,3.40
2023-02-16T07:58:31.297Z,2.57
2023-02-16T08:01:18.714Z,3.30
2023-02-16T08:04:06.780Z,3.20
2023-02-16T08:06:55.146Z,3.67
2023-02-16T08:09:42.272Z,3.30
2023-02-16T08:12:29.564Z,3.77
2023-02-16T08:15:17.215Z,3.60
2023-02-16T08:18:04.114Z,3.43
2023-02-16T08:21:03.955Z,3.13
2023-02-16T08:23:56.524Z,2.90
2023-02-16T08:26:44.822Z,3.20
2023-02-16T08:29:32.474Z,3.37
2023-02-16T08:32:21.879Z,3.00
2023-02-16T08:35:10.209Z,3.30
2023-02-16T08:37:57.033Z,3.57
2023-02-16T08:40:50.574Z,2.70
2023-02-16T08:43:37.654Z,3.27
2023-02-16T08:46:24.788Z,2.60
2023-02-16T08:49:12.948Z,2.70
2023-02-16T08:52:01.579Z,3.25
2023-02-16T08:54:48.609Z,3.15
2023-02-16T08:57:37.365Z,3.17
2023-02-16T09:00:38.635Z,2.70
2023-02-16T09:03:25.528Z,2.65
2023-02-16T09:06:14.090Z,3.08
2023-02-16T09:09:01.040Z,3.22
2023-02-16T09:11:47.878Z,3.08
2023-02-16T09:14:37.039Z,2.90
2023-02-16T09:17:24.057Z,2.72
2023-02-16T09:20:12.341Z,3.38
2023-02-16T09:22:59.204Z,3.03
2023-02-16T09:25:46.280Z,2.97
2023-02-16T09:28:33.823Z,3.05
2023-02-16T09:31:26.360Z,2.70
2023-02-16T09:34:17.855Z,2.97
2023-02-16T09:37:04.858Z,2.63
2023-02-16T09:39:51.932Z,2.83
2023-02-16T09:42:51.602Z,2.75
2023-02-16T09:45:44.984Z,2.70
2023-02-16T09:48:38.536Z,2.60
2023-02-16T09:51:34.278Z,2.92
2023-02-16T09:54:36.205Z,2.67
2023-02-16T09:57:48.643Z,2.75
2023-02-16T10:01:00.157Z,2.53
2023-02-16T10:03:56.788Z,2.28
2023-02-16T10:06:55.993Z,2.08
2023-02-16T10:09:48.703Z,2.80
2023-02-16T10:12:44.109Z,2.70
2023-02-16T10:15:33.656Z,2.40
2023-02-16T10:18:29.322Z,2.40
2023-02-16T10:21:22.820Z,1.90
2023-02-16T10:24:13.568Z,2.08
2023-02-16T10:27:07.603Z,1.70
2023-02-16T10:29:55.611Z,1.85
2023-02-16T10:32:55.068Z,1.90
2023-02-16T10:35:48.275Z,1.80
2023-02-16T10:38:43.801Z,2.03
2023-02-16T10:41:34.624Z,2.00
2023-02-16T10:44:26.190Z,1.70
2023-02-16T10:47:26.248Z,1.80
2023-02-16T10:50:23.173Z,1.70
2023-02-16T10:53:18.166Z,1.58
2023-02-16T10:56:28.506Z,1.85
2023-02-16T10:59:19.111Z,1.83
2023-02-16T11:02:19.202Z,1.55
2023-02-16T11:05:32.395Z,1.88
2023-02-16T11:08:19.521Z,2.03
2023-02-16T11:11:10.980Z,1.70
2023-02-16T11:14:01.753Z,2.10
2023-02-16T11:16:49.209Z,1.75
2023-02-16T11:19:37.679Z,1.95
2023-02-16T11:22:32.429Z,1.70
2023-02-16T11:25:25.916Z,1.75
2023-02-16T11:28:12.640Z,2.00
2023-02-16T11:31:12.472Z,2.20
2023-02-16T11:34:04.331Z,2.30
2023-02-16T11:36:53.371Z,2.15
2023-02-16T11:39:48.532Z,2.33
2023-02-16T11:42:40.384Z,1.88
2023-02-16T11:45:31.410Z,2.10
2023-02-16T11:48:31.345Z,2.58
2023-02-16T11:51:33.294Z,2.10
2023-02-16T11:54:20.973Z,2.20
2023-02-16T11:57:11.229Z,2.17
2023-02-16T11:59:59.878Z,2.30
2023-02-16T12:03:11.289Z,1.95
2023-02-16T12:06:23.561Z,2.25
2023-02-16T12:09:20.962Z,2.50
2023-02-16T12:12:16.317Z,1.90
2023-02-16T12:15:12.025Z,2.20
2023-02-16T12:18:14.312Z,2.40
2023-02-16T12:21:14.462Z,2.13
2023-02-16T12:24:09.574Z,2.25
2023-02-16T12:26:59.658Z,2.30
2023-02-16T12:29:57.179Z,2.28
2023-02-16T12:33:01.744Z,2.55
2023-02-16T12:36:02.252Z,2.25
2023-02-16T12:38:59.941Z,2.42
2023-02-16T12:42:00.027Z,2.40
2023-02-16T12:44:51.771Z,2.78
2023-02-16T12:47:44.156Z,2.15
2023-02-16T12:50:34.459Z,1.83
2023-02-16T12:53:28.638Z,2.13
2023-02-16T12:56:20.583Z,2.40
2023-02-16T12:59:16.782Z,2.42
2023-02-16T13:02:13.338Z,2.20
2023-02-16T13:05:08.775Z,2.30
2023-02-16T13:08:02.925Z,2.55
2023-02-16T13:10:57.467Z,2.00
2023-02-16T13:13:46.028Z,2.13
2023-02-16T13:16:40.742Z,1.90
2023-02-16T13:19:29.509Z,1.70
2023-02-16T13:22:37.799Z,2.13
2023-02-16T13:25:48.196Z,2.30
2023-02-16T13:28:54.598Z,2.67
2023-02-16T13:31:53.676Z,2.08
2023-02-16T13:35:16.844Z,2.30
2023-02-16T13:38:19.413Z,2.17
2023-02-16T13:41:44.166Z,2.27
2023-02-16T13:44:38.766Z,2.03
2023-02-16T13:47:30.150Z,1.30
2023-02-16T13:50:31.095Z,2.13
2023-02-16T13:53:21.041Z,1.80
2023-02-16T13:56:25.840Z,1.73
2023-02-16T13:59:57.862Z,1.80
2023-02-16T14:02:59.386Z,1.80
2023-02-16T14:05:49.323Z,1.77
2023-02-16T14:08:35.973Z,1.80
2023-02-16T14:11:23.279Z,1.60
2023-02-16T14:14:29.690Z,1.90
2023-02-16T14:17:18.330Z,1.37
2023-02-16T14:20:09.165Z,2.20
2023-02-16T14:23:00.142Z,2.07
2023-02-16T14:25:47.443Z,2.20
2023-02-16T14:29:12.614Z,1.67
2023-02-16T14:32:06.001Z,1.93
2023-02-16T14:34:58.298Z,1.70
2023-02-16T14:37:53.102Z,1.50
2023-02-16T14:40:52.154Z,1.70
2023-02-16T14:43:43.317Z,2.00
2023-02-16T14:46:43.461Z,2.13
2023-02-16T14:50:03.802Z,1.87
2023-02-16T14:53:12.825Z,2.10
2023-02-16T14:56:25.779Z,1.87
2023-02-16T14:59:28.017Z,1.57
2023-02-16T15:02:30.411Z,1.93
2023-02-16T15:05:21.615Z,1.63
2023-02-16T15:08:13.276Z,2.03
2023-02-16T15:11:05.942Z,1.97
2023-02-16T15:13:55.343Z,1.90
2023-02-16T15:16:43.061Z,1.90
2023-02-16T15:19:32.335Z,2.00
2023-02-16T15:22:22.195Z,2.03
2023-02-16T15:25:27.933Z,1.90
2023-02-16T15:28:22.758Z,2.57
2023-02-16T15:31:18.654Z,1.87
2023-02-16T15:34:08.163Z,2.13
2023-02-16T15:36:55.056Z,1.80
2023-02-16T15:39:56.021Z,2.00
2023-02-16T15:42:51.963Z,2.30
2023-02-16T15:45:39.612Z,1.50
2023-02-16T15:48:30.785Z,1.70
2023-02-16T15:51:25.465Z,1.60
2023-02-16T15:54:22.383Z,1.87
2023-02-16T15:57:16.772Z,2.00
2023-02-16T16:00:07.468Z,1.87
2023-02-16T16:02:58.463Z,1.87
2023-02-16T16:05:59.042Z,2.00
2023-02-16T16:08:46.764Z,2.00
2023-02-16T16:11:34.544Z,2.30
2023-02-16T16:14:22.585Z,1.87
2023-02-16T16:17:15.700Z,1.90
2023-02-16T16:20:29.253Z,1.70
2023-02-16T16:23:28.482Z,1.80
2023-02-16T16:26:19.812Z,1.53
2023-02-16T16:29:31.916Z,1.53
2023-02-16T16:32:21.418Z,1.47
2023-02-16T16:35:21.476Z,1.53
2023-02-16T16:38:22.075Z,1.97
2023-02-16T16:41:25.185Z,1.97
2023-02-16T16:44:28.835Z,2.17
2023-02-16T16:47:24.711Z,1.57
2023-02-16T16:50:33.394Z,1.60
2023-02-16T16:53:55.240Z,1.30
2023-02-16T16:56:43.134Z,1.53
2023-02-16T16:59:30.160Z,1.53
2023-02-16T17:02:18.513Z,1.63
2023-02-16T17:05:06.873Z,1.60
2023-02-16T17:07:53.736Z,1.07
2023-02-16T17:10:42.438Z,1.77
2023-02-16T17:13:29.265Z,2.23
2023-02-16T17:16:21.814Z,1.47
2023-02-16T17:19:13.093Z,1.40
2023-02-16T17:21:59.906Z,1.97
2023-02-16T17:24:47.432Z,1.53
2023-02-16T17:27:34.053Z,1.37
2023-02-16T17:30:21.230Z,1.87
2023-02-16T17:33:09.678Z,1.33
2023-02-16T17:35:58.185Z,1.87
2023-02-16T17:38:45.736Z,1.63
2023-02-16T17:41:33.607Z,1.70
2023-02-16T17:44:22.044Z,1.77
2023-02-16T17:47:11.584Z,1.97
2023-02-16T17:49:58.203Z,1.50
2023-02-16T17:52:47.038Z,1.40
2023-02-16T17:55:35.991Z,1.87
2023-02-16T17:58:24.137Z,1.70
2023-02-16T18:01:14.204Z,1.83
2023-02-16T18:04:03.271Z,1.70
2023-02-16T18:06:51.282Z,1.60
2023-02-16T18:09:39.773Z,1.00
2023-02-16T18:12:28.496Z,2.07
2023-02-16T18:15:15.665Z,2.13
2023-02-16T18:18:02.743Z,1.70
2023-02-16T18:20:49.798Z,1.50
2023-02-16T18:23:37.114Z,1.67
2023-02-16T18:26:26.254Z,1.97
2023-02-16T18:29:13.840Z,1.90
2023-02-16T18:32:00.820Z,2.37
2023-02-16T18:34:47.815Z,1.70
2023-02-16T18:37:35.006Z,2.37
2023-02-16T18:40:22.538Z,2.00
2023-02-16T18:43:11.508Z,2.10
2023-02-16T18:45:58.751Z,1.60
2023-02-16T18:48:45.563Z,1.80
2023-02-16T18:51:33.716Z,1.77
2023-02-16T18:54:20.891Z,1.90
2023-02-16T18:57:08.052Z,1.80
2023-02-16T18:59:56.794Z,1.50
2023-02-16T19:02:44.389Z,1.60
2023-02-16T19:05:31.353Z,1.90
2023-02-16T19:08:18.271Z,1.70
2023-02-16T19:11:05.279Z,1.67
2023-02-16T19:13:52.497Z,1.43
2023-02-16T19:16:41.439Z,1.67
2023-02-16T19:19:30.141Z,1.90
2023-02-16T19:22:18.102Z,2.03
2023-02-16T19:25:05.832Z,2.10
2023-02-16T19:27:53.093Z,1.73
2023-02-16T19:30:40.986Z,2.50
2023-02-16T19:33:30.753Z,2.43
2023-02-16T19:36:25.317Z,1.93
2023-02-16T19:39:14.397Z,1.83
2023-02-16T19:42:03.643Z,2.43
2023-02-16T19:44:51.176Z,2.03
2023-02-16T19:47:40.607Z,2.03
2023-02-16T19:50:31.611Z,1.73
2023-02-16T19:53:28.480Z,1.80
2023-02-16T19:56:20.103Z,1.40
2023-02-16T19:59:11.343Z,1.80
2023-02-16T20:01:59.690Z,2.30
2023-02-16T20:04:53.322Z,1.80
2023-02-16T20:07:47.137Z,2.50
2023-02-16T20:10:34.976Z,2.23
2023-02-16T20:13:22.550Z,2.47
2023-02-16T20:16:18.680Z,1.53
2023-02-16T20:19:10.419Z,1.87
2023-02-16T20:22:00.217Z,2.07
2023-02-16T20:24:50.603Z,2.47
2023-02-16T20:27:40.534Z,2.10
2023-02-16T20:30:28.099Z,1.73
2023-02-16T20:33:15.732Z,1.40
2023-02-16T20:36:03.744Z,1.73
2023-02-16T20:38:52.004Z,2.00
2023-02-16T20:41:43.332Z,1.80
2023-02-16T20:44:34.849Z,1.80
2023-02-16T20:47:22.844Z,2.87
2023-02-16T20:50:11.889Z,2.60
2023-02-16T20:53:01.636Z,2.67
2023-02-16T20:55:51.561Z,2.53
2023-02-16T20:58:43.769Z,1.87
2023-02-16T21:01:34.328Z,2.33
2023-02-16T21:04:26.110Z,2.10
2023-02-16T21:07:21.690Z,2.07
2023-02-16T21:10:12.160Z,1.83
2023-02-16T21:13:00.091Z,2.20
2023-02-16T21:15:53.782Z,1.90
2023-02-16T21:18:46.960Z,1.90
2023-02-16T21:21:41.584Z,2.00
2023-02-16T21:24:29.233Z,2.50
2023-02-16T21:27:16.799Z,2.10
2023-02-16T21:30:06.793Z,2.27
2023-02-16T21:33:01.185Z,2.13
2023-02-16T21:35:52.871Z,1.60
2023-02-16T21:38:41.207Z,1.63
2023-02-16T21:41:29.466Z,1.80
2023-02-16T21:44:18.867Z,2.00
2023-02-16T21:47:23.775Z,1.97
2023-02-16T21:50:18.393Z,1.57
2023-02-16T21:53:07.817Z,1.57
2023-02-16T21:56:12.511Z,1.97
2023-02-16T22:01:56.500Z,2.10
2023-02-16T22:04:43.765Z,1.73
2023-02-16T22:07:31.609Z,1.47
2023-02-16T22:10:18.690Z,1.90
2023-02-16T22:13:06.280Z,1.67
2023-02-16T22:15:53.529Z,1.50
2023-02-16T22:18:40.662Z,1.90
2023-02-16T22:21:28.872Z,1.90
2023-02-16T22:24:19.682Z,1.67
2023-02-16T22:27:06.893Z,1.60
2023-02-16T22:29:53.966Z,1.97
2023-02-16T22:32:40.953Z,2.07
2023-02-16T22:35:27.690Z,1.97
2023-02-16T22:38:14.566Z,2.10
2023-02-16T22:41:07.273Z,2.17
2023-02-16T22:43:55.736Z,2.10
2023-02-16T22:46:42.599Z,1.70
2023-02-16T22:49:29.999Z,1.63
2023-02-16T22:52:16.920Z,1.83
2023-02-16T22:55:03.822Z,1.87
2023-02-16T22:57:52.234Z,2.03
2023-02-16T23:00:39.112Z,1.80
2023-02-16T23:03:26.142Z,1.67
2023-02-16T23:06:14.692Z,1.90
2023-02-16T23:09:03.862Z,1.80
2023-02-16T23:11:51.446Z,1.90
2023-02-16T23:14:40.168Z,1.80
2023-02-16T23:17:27.365Z,2.17
2023-02-16T23:20:14.142Z,1.93
2023-02-16T23:23:00.888Z,2.20
2023-02-16T23:25:48.428Z,1.50
2023-02-16T23:28:35.461Z,1.70
2023-02-16T23:31:24.118Z,1.70
2023-02-16T23:34:12.562Z,1.67
2023-02-16T23:36:59.231Z,1.60
2023-02-16T23:39:46.315Z,1.90
2023-02-16T23:42:33.526Z,1.90
2023-02-16T23:45:20.309Z,1.77
2023-02-16T23:48:08.432Z,1.80
2023-02-16T23:50:55.863Z,1.67
2023-02-16T23:53:42.688Z,1.90
2023-02-16T23:56:30.371Z,1.50
2023-02-16T23:59:17.365Z,1.83
